»·PEaware :: N162PT KSNA-KSNA

N162PT :: KSNA-KSNA

FLIGHT INFORMATION

Flight Status: Arrived
Operator: Privately registered:
United States
More flights under this callsign
Pilot: Anonymous 16342 (16342)
Aircraft: CESSNA 172 SKYHAWK
(C172)
More flights by this aircraft type
Origin: KSNA John Wayne-Orange Co
United States
Destination: KSNA John Wayne-Orange Co
United States
More flights between these airports :: More routes between these airports
Route: SLI
File this flight plan on PilotEdge
Remarks: I-1 Rating
Altitude:
(Current/Filed)
3,000ft
Speed:
(Current/Filed)
110kts
Departed: 09-Jun-18 07:44 AM
Arrived: 09-Jun-18 08:12 AM
Distance/Time
Traveled:
0nm/0:28
Distance/Time
To Go:
Arrived

Flight Plot

Page will automatically refresh every two minutes.


Map Options




Map Legend


Flown Route
Filed Route
Departure Airport
Arrival Airport
Navaid (VOR, NDB)
Fix

Horizontal Profiles

Position Reports

Time Latitude Longitude Heading Altitude Ground
Speed
09-Jun-18 07:25 33.667170 -117.872136 225 60ft 0kts
09-Jun-18 07:26 33.667169 -117.872136 224 60ft 0kts
09-Jun-18 07:27 33.667169 -117.872136 224 60ft 0kts
09-Jun-18 07:28 33.667169 -117.872136 224 60ft 0kts
09-Jun-18 07:29 33.667169 -117.872136 224 60ft 0kts
09-Jun-18 07:30 33.667169 -117.872136 224 60ft 0kts
09-Jun-18 07:31 33.667169 -117.872136 224 60ft 0kts
09-Jun-18 07:32 33.667169 -117.872136 224 60ft 0kts
09-Jun-18 07:33 33.667169 -117.872136 224 60ft 0kts
09-Jun-18 07:34 33.667169 -117.872136 224 60ft 0kts
09-Jun-18 07:35 33.667169 -117.872136 224 60ft 0kts
09-Jun-18 07:36 33.667169 -117.872136 224 60ft 0kts
09-Jun-18 07:37 33.667169 -117.872136 224 60ft 0kts
09-Jun-18 07:38 33.670753 -117.869217 40 60ft 25kts
09-Jun-18 07:39 33.674569 -117.866771 30 60ft 18kts
09-Jun-18 07:40 33.679463 -117.863712 28 60ft 20kts
09-Jun-18 07:41 33.679969 -117.863679 293 60ft 0kts
09-Jun-18 07:42 33.679969 -117.863679 293 60ft 0kts
09-Jun-18 07:43 33.679969 -117.863679 293 60ft 0kts
09-Jun-18 07:44 33.674815 -117.867908 217 158ft 72kts
09-Jun-18 07:45 33.663649 -117.892793 245 822ft 95kts
09-Jun-18 07:46 33.654394 -117.916567 245 1510ft 94kts
09-Jun-18 07:47 33.642874 -117.944951 241 2257ft 96kts
09-Jun-18 07:48 33.630374 -117.973448 241 2944ft 98kts
09-Jun-18 07:49 33.616406 -118.004490 242 3000ft 111kts
09-Jun-18 07:50 33.632702 -118.021380 20 2999ft 111kts
09-Jun-18 07:51 33.661090 -118.007784 21 2999ft 110kts
09-Jun-18 07:52 33.688770 -117.994627 21 2999ft 105kts
09-Jun-18 07:53 33.715543 -117.982068 21 3000ft 104kts
09-Jun-18 07:54 33.742199 -117.968067 31 2999ft 107kts
09-Jun-18 07:55 33.767632 -117.949656 31 2999ft 108kts
09-Jun-18 07:56 33.793016 -117.931304 31 2999ft 109kts
09-Jun-18 07:57 33.818863 -117.912472 31 2999ft 110kts
09-Jun-18 07:58 33.844795 -117.893357 31 2999ft 110kts
09-Jun-18 07:59 33.864901 -117.869072 88 2997ft 111kts
09-Jun-18 08:00 33.862886 -117.825586 91 3000ft 112kts
09-Jun-18 08:01 33.861349 -117.794429 91 3002ft 112kts
09-Jun-18 08:02 33.859507 -117.756794 91 3005ft 113kts
09-Jun-18 08:03 33.840728 -117.739030 209 3006ft 116kts
09-Jun-18 08:04 33.813827 -117.760063 226 3004ft 116kts
09-Jun-18 08:05 33.793572 -117.791265 231 2535ft 117kts
09-Jun-18 08:06 33.768090 -117.810202 205 1993ft 103kts
09-Jun-18 08:07 33.747127 -117.823550 204 1533ft 75kts
09-Jun-18 08:08 33.729064 -117.834984 204 1134ft 73kts
09-Jun-18 08:09 33.711118 -117.846361 207 751ft 76kts
09-Jun-18 08:10 33.692466 -117.858200 207 340ft 76kts
09-Jun-18 08:11 33.675161 -117.869226 200 60ft 43kts
09-Jun-18 08:12 33.674271 -117.871034 292 60ft 3kts
09-Jun-18 08:13 33.675949 -117.870958 49 60ft 0kts
09-Jun-18 08:14 33.675950 -117.870957 49 60ft 0kts
09-Jun-18 08:15 33.675950 -117.870957 49 60ft 0kts
09-Jun-18 08:16 33.675950 -117.870957 49 60ft 0kts
09-Jun-18 08:17 33.675950 -117.870957 49 60ft 0kts
09-Jun-18 08:18 33.675950 -117.870957 49 60ft 0kts
09-Jun-18 08:19 33.675950 -117.870957 49 60ft 0kts
09-Jun-18 08:20 33.675950 -117.870957 49 60ft 0kts

Navigation Log

Ident Type
Flight plan parsing failed, navigation log unavailable